Terminal Aerodrome Forecast
Issued by NWS

Home | Current Version | Previous Version | Text Only | Print | Product List | Glossary On
Versions: 1 2 3 4 5 6 7 8 9 10 11 12 13
304
FTUS44 KEPZ 230520
TAFLRU
TAF
KLRU 230520Z 2306/2406 27010KT P6SM FEW120
     FM230800 21006KT P6SM SCT100 SCT150
     FM231400 19010KT P6SM VCTS SCT080CB BKN120
     FM240000 24010KT P6SM SCT080 BKN120=

USA.gov is the U.S. government's official web portal to all federal, state and local government web resources and services.